ロングイェールビーン の空港の天気 - METARとTAF

スヴァールバル空港 ( ENSB / LYR ) - スヴァールバル諸島・ヤンマイエン島 ロングイェールビーン
飛行場実況気象(Metar)
観測時間06/19 17:50 CEST (06/19 15:50 UTC)
風向・風速東南東 11m/s
視程10km以上
天気現象
少しの雲 雲底高度 460m
全天の4割程度の雲 雲底高度 910m
全天の8割程度の雲 雲底高度 1370m
気温4℃
湿度75%
気圧997hPa
METARENSB 191550Z 12021KT 9999 FEW015 SCT030 BKN045 04/00 Q0997 RMK WIND 1400FT 11028KT
過去の天気等 Google飛行場航空写真 Wunderground天気予報

過去48時間のMETAR

飛行場予報(TAF)
発表時間: -
19日14時 CEST ~ 19日23時 CEST に一時的に
風向・風速東南東 13m/s 瞬間風速 18m/s
20日2時 CEST ~ 20日10時 CEST に一時的に
風向・風速不定 3m/s
20日10時 CEST ~ 20日12時 CEST に徐々に
風向・風速西 4m/s
TAF ENSB 1912/2012 12015KT 9999 FEW010 BKN030
TEMPO 1912/1921 12025G35KT
TEMPO 2000/2008 VRB05KT
BECMG 2008/2010 26008KT